createdAt,value
2022-10-23T04:56:27.617Z,0.00
2022-10-23T04:56:36.253Z,0.00
2022-10-23T04:57:32.367Z,0.00
2022-10-23T04:58:32.355Z,0.00
2022-10-23T04:59:32.342Z,0.00
2022-10-23T05:00:32.421Z,0.00
2022-10-23T05:01:32.381Z,0.00
2022-10-23T05:02:32.308Z,0.00
2022-10-23T05:03:32.287Z,0.00
2022-10-23T05:04:33.233Z,0.00
2022-10-23T05:05:32.277Z,0.00
2022-10-23T05:06:33.215Z,0.00
2022-10-23T05:07:32.229Z,0.00
2022-10-23T05:08:32.226Z,0.00
2022-10-23T05:09:32.207Z,0.00
2022-10-23T05:10:32.211Z,0.00
2022-10-23T05:11:32.178Z,2.00
2022-10-23T05:12:32.166Z,2.00
2022-10-23T05:13:32.171Z,0.00
2022-10-23T05:14:32.158Z,0.00
2022-10-23T05:15:32.168Z,0.00
2022-10-23T05:16:32.118Z,0.00
2022-10-23T05:17:33.041Z,0.00
2022-10-23T05:18:32.090Z,0.00
2022-10-23T05:19:32.100Z,2.00
2022-10-23T05:20:32.104Z,1.00
2022-10-23T05:21:32.045Z,1.00
2022-10-23T05:22:32.043Z,3.00
2022-10-23T05:23:32.021Z,2.00
2022-10-23T05:24:32.026Z,13.00
2022-10-23T05:25:31.991Z,5.00
2022-10-23T05:26:32.938Z,3.00
2022-10-23T05:27:32.925Z,5.00
2022-10-23T05:28:31.955Z,7.00
2022-10-23T05:29:31.953Z,9.00
2022-10-23T05:30:32.882Z,12.00
2022-10-23T05:31:31.925Z,18.00
2022-10-23T05:32:31.897Z,31.00
2022-10-23T05:33:31.900Z,31.00
2022-10-23T05:34:31.899Z,40.00
2022-10-23T05:35:31.880Z,49.00
2022-10-23T05:36:31.858Z,60.00
2022-10-23T05:37:31.846Z,59.00
2022-10-23T05:38:31.814Z,69.00
2022-10-23T05:39:31.862Z,76.00
2022-10-23T05:40:31.872Z,86.00
2022-10-23T05:41:32.063Z,112.00
2022-10-23T05:42:31.768Z,123.00
2022-10-23T05:43:31.768Z,139.00
2022-10-23T05:44:31.749Z,154.00
2022-10-23T05:45:31.740Z,166.00
2022-10-23T05:46:31.958Z,188.00
2022-10-23T05:47:31.698Z,208.00
2022-10-23T05:48:34.653Z,222.00
2022-10-23T05:49:31.699Z,244.00
2022-10-23T05:50:31.690Z,267.00
2022-10-23T05:51:32.605Z,267.00
2022-10-23T05:52:32.579Z,309.00
2022-10-23T05:53:32.579Z,317.00
2022-10-23T05:54:32.412Z,342.00
2022-10-23T05:55:31.608Z,350.00
2022-10-23T05:56:31.581Z,386.00
2022-10-23T05:57:31.580Z,413.00
2022-10-23T05:58:31.560Z,431.00
2022-10-23T05:59:31.565Z,460.00
2022-10-23T06:00:31.537Z,484.00
2022-10-23T06:01:31.589Z,513.00
2022-10-23T06:02:31.579Z,535.00
2022-10-23T06:03:31.492Z,581.00
2022-10-23T06:04:31.484Z,613.00
2022-10-23T06:05:31.501Z,652.00
2022-10-23T06:06:31.459Z,683.00
2022-10-23T06:07:33.736Z,718.00
2022-10-23T06:08:31.416Z,756.00
2022-10-23T06:09:31.414Z,780.00
2022-10-23T06:10:31.392Z,834.00
2022-10-23T06:11:31.395Z,878.00
2022-10-23T06:12:31.379Z,911.00
2022-10-23T06:13:32.298Z,950.00
2022-10-23T06:14:31.345Z,983.00
2022-10-23T06:15:31.337Z,1029.00
2022-10-23T06:16:31.314Z,1069.00
2022-10-23T06:17:31.316Z,1113.00
2022-10-23T06:18:32.247Z,1160.00
2022-10-23T06:19:31.312Z,1211.00
2022-10-23T06:20:31.259Z,1256.00
2022-10-23T06:21:31.248Z,1328.00
2022-10-23T06:22:31.234Z,1389.00
2022-10-23T06:23:31.218Z,1443.00
2022-10-23T06:24:31.207Z,1509.00
2022-10-23T06:25:31.198Z,1564.00
2022-10-23T06:26:31.178Z,1607.00
2022-10-23T06:27:31.169Z,1668.00
2022-10-23T06:28:31.146Z,1717.00
2022-10-23T06:29:31.149Z,1763.00
2022-10-23T06:30:31.144Z,1831.00
2022-10-23T06:31:31.114Z,1891.00
2022-10-23T06:32:31.099Z,1946.00
2022-10-23T06:33:31.087Z,2013.00
2022-10-23T06:34:31.087Z,2072.00
2022-10-23T06:35:31.081Z,2135.00
2022-10-23T06:36:31.061Z,2163.00
2022-10-23T06:37:31.034Z,2207.00
2022-10-23T06:38:31.021Z,2263.00
2022-10-23T06:39:32.223Z,2322.00
2022-10-23T06:40:31.002Z,2386.00
2022-10-23T06:41:30.992Z,2459.00
2022-10-23T06:42:30.971Z,2520.00
2022-10-23T06:43:30.960Z,2603.00
2022-10-23T06:44:30.943Z,2668.00
2022-10-23T06:45:30.932Z,2705.00
2022-10-23T06:46:30.923Z,2747.00
2022-10-23T06:47:30.904Z,2780.00
2022-10-23T06:48:30.883Z,2799.00
2022-10-23T06:49:30.894Z,2827.00
2022-10-23T06:50:30.855Z,2813.00
2022-10-23T06:51:30.862Z,2819.00
2022-10-23T06:52:46.385Z,2837.00
2022-10-23T06:53:31.829Z,2863.00
2022-10-23T06:54:30.807Z,2867.00
2022-10-23T06:55:30.856Z,2887.00
2022-10-23T06:56:30.786Z,2931.00
2022-10-23T06:57:30.776Z,2973.00
2022-10-23T06:58:30.772Z,3030.00
2022-10-23T06:59:30.746Z,3092.00
2022-10-23T07:00:30.759Z,3140.00
2022-10-23T07:01:30.910Z,3171.00
2022-10-23T07:02:30.708Z,3240.00
2022-10-23T07:03:30.938Z,3283.00
2022-10-23T07:04:30.678Z,3364.00
2022-10-23T07:05:30.668Z,3461.00
2022-10-23T07:06:30.649Z,3571.00
2022-10-23T07:07:30.648Z,3642.00
2022-10-23T07:08:30.617Z,3695.00
2022-10-23T07:09:31.589Z,3724.00
2022-10-23T07:10:30.600Z,3735.00
2022-10-23T07:11:30.593Z,3735.00
2022-10-23T07:12:30.571Z,3716.00
2022-10-23T07:13:30.572Z,3687.00
2022-10-23T07:14:30.545Z,3624.00
2022-10-23T07:15:30.530Z,3570.00
2022-10-23T07:16:30.513Z,3509.00
2022-10-23T07:17:30.501Z,3479.00
2022-10-23T07:18:30.526Z,3440.00
2022-10-23T07:19:30.512Z,3430.00
2022-10-23T07:20:30.461Z,3399.00
2022-10-23T07:21:30.453Z,3423.00
2022-10-23T07:22:30.433Z,3410.00
2022-10-23T07:23:30.433Z,3426.00
2022-10-23T07:24:30.443Z,3445.00
2022-10-23T07:25:30.406Z,3506.00
2022-10-23T07:26:30.384Z,3556.00
2022-10-23T07:27:30.373Z,3620.00
2022-10-23T07:28:30.385Z,3692.00
2022-10-23T07:29:31.305Z,3772.00
2022-10-23T07:30:30.325Z,3844.00
2022-10-23T07:31:30.325Z,3932.00
2022-10-23T07:32:30.297Z,4034.00
2022-10-23T07:33:30.286Z,4143.00
2022-10-23T07:34:30.286Z,4194.00
2022-10-23T07:35:32.115Z,4229.00
2022-10-23T07:36:30.257Z,4260.00
2022-10-23T07:37:30.243Z,4251.00
2022-10-23T07:38:30.227Z,4223.00
2022-10-23T07:39:30.232Z,4191.00
2022-10-23T07:40:30.200Z,4144.00
2022-10-23T07:41:30.186Z,4111.00
2022-10-23T07:42:30.178Z,4073.00
2022-10-23T07:43:30.164Z,4065.00
2022-10-23T07:44:30.149Z,4108.00
2022-10-23T07:45:30.129Z,4144.00
2022-10-23T07:46:30.109Z,4197.00
2022-10-23T07:47:30.100Z,4228.00
2022-10-23T07:48:30.090Z,4250.00
2022-10-23T07:49:30.340Z,4274.00
2022-10-23T07:50:30.060Z,4302.00
2022-10-23T07:51:30.051Z,4269.00
2022-10-23T07:52:32.176Z,4243.00
2022-10-23T07:53:31.036Z,4174.00
2022-10-23T07:54:30.001Z,4150.00
2022-10-23T07:55:30.001Z,4049.00
2022-10-23T07:56:29.992Z,3977.00
2022-10-23T07:57:29.999Z,3900.00
2022-10-23T07:58:29.969Z,3885.00
2022-10-23T07:59:32.474Z,3899.00
2022-10-23T08:00:29.933Z,3915.00
2022-10-23T08:01:30.063Z,3973.00
2022-10-23T08:02:29.933Z,4045.00
2022-10-23T08:03:29.906Z,4123.00
2022-10-23T08:04:29.881Z,4192.00
2022-10-23T08:05:29.866Z,4208.00
2022-10-23T08:06:29.856Z,4249.00
2022-10-23T08:07:29.876Z,4240.00
2022-10-23T08:08:29.876Z,4262.00
2022-10-23T08:09:29.817Z,4288.00
2022-10-23T08:10:29.798Z,4303.00
2022-10-23T08:11:29.787Z,4321.00
2022-10-23T08:12:29.797Z,4368.00
2022-10-23T08:13:29.785Z,4381.00
2022-10-23T08:14:29.749Z,4397.00
2022-10-23T08:15:29.736Z,4407.00
2022-10-23T08:16:29.730Z,4426.00
2022-10-23T08:17:29.720Z,4452.00
2022-10-23T08:18:29.706Z,4502.00
2022-10-23T08:19:29.687Z,4553.00
2022-10-23T08:20:29.669Z,4594.00
2022-10-23T08:21:29.663Z,4612.00
2022-10-23T08:22:30.623Z,4632.00
2022-10-23T08:23:29.627Z,4641.00
2022-10-23T08:24:29.622Z,4648.00
2022-10-23T08:25:29.707Z,4683.00
2022-10-23T08:26:29.593Z,4751.00
2022-10-23T08:27:29.582Z,4813.00
2022-10-23T08:28:29.563Z,4884.00
2022-10-23T08:29:29.563Z,4923.00
2022-10-23T08:30:29.547Z,4952.00
2022-10-23T08:31:29.523Z,4988.00
2022-10-23T08:32:29.535Z,4996.00
2022-10-23T08:33:29.494Z,4975.00
2022-10-23T08:34:29.485Z,5000.00
2022-10-23T08:35:29.474Z,5011.00
2022-10-23T08:36:29.486Z,5018.00
2022-10-23T08:37:29.461Z,5073.00
2022-10-23T08:38:29.434Z,5091.00
2022-10-23T08:39:29.415Z,5061.00
2022-10-23T08:40:29.397Z,5085.00
2022-10-23T08:41:29.387Z,5120.00
2022-10-23T08:42:29.376Z,5143.00
2022-10-23T08:43:29.595Z,5163.00
2022-10-23T08:44:29.347Z,5209.00
2022-10-23T08:45:29.327Z,5265.00
2022-10-23T08:46:29.577Z,5331.00
2022-10-23T08:47:29.307Z,5381.00
2022-10-23T08:48:29.307Z,5420.00
2022-10-23T08:49:29.280Z,5444.00
2022-10-23T08:51:29.259Z,5433.00
2022-10-23T08:52:29.240Z,5394.00
2022-10-23T08:53:29.219Z,5376.00
2022-10-23T08:54:29.240Z,5375.00
2022-10-23T08:55:29.225Z,5391.00
2022-10-23T08:56:29.191Z,5415.00
2022-10-23T08:57:29.171Z,5454.00
2022-10-23T08:58:29.166Z,5471.00
2022-10-23T08:59:29.182Z,5556.00
2022-10-23T09:00:29.132Z,5640.00
2022-10-23T09:01:29.267Z,5697.00
2022-10-23T09:02:29.105Z,5815.00
2022-10-23T09:03:29.091Z,5842.00
2022-10-23T09:04:29.084Z,6085.00
2022-10-23T09:05:29.065Z,5904.00
2022-10-23T09:06:29.086Z,6152.00
2022-10-23T09:07:29.025Z,5681.00
2022-10-23T09:08:29.015Z,5245.00
2022-10-23T09:09:29.006Z,5039.00
2022-10-23T09:10:28.995Z,5386.00
2022-10-23T09:11:28.985Z,5467.00
2022-10-23T09:12:28.955Z,4942.00
2022-10-23T09:13:29.905Z,4905.00
2022-10-23T09:14:28.956Z,5239.00
2022-10-23T09:15:28.926Z,5552.00
2022-10-23T09:16:29.867Z,4955.00
2022-10-23T09:17:28.897Z,5623.00
2022-10-23T09:18:28.878Z,5682.00
2022-10-23T09:19:29.836Z,5700.00
2022-10-23T09:20:28.850Z,5654.00
2022-10-23T09:21:28.859Z,5569.00
2022-10-23T09:22:28.820Z,5233.00
2022-10-23T09:23:28.835Z,5431.00
2022-10-23T09:24:28.796Z,5188.00
2022-10-23T09:25:28.794Z,4970.00
2022-10-23T09:26:28.780Z,4461.00
2022-10-23T09:27:28.760Z,4420.00
2022-10-23T09:28:28.749Z,4385.00
2022-10-23T09:29:28.761Z,4480.00
2022-10-23T09:30:29.670Z,4397.00
2022-10-23T09:31:28.712Z,4382.00
2022-10-23T09:32:28.683Z,4523.00
2022-10-23T09:33:28.672Z,4477.00
2022-10-23T09:34:28.663Z,4441.00
2022-10-23T09:35:28.663Z,4862.00
2022-10-23T09:36:28.641Z,5278.00
2022-10-23T09:37:28.626Z,5257.00
2022-10-23T09:38:28.609Z,4938.00
2022-10-23T09:39:28.604Z,5220.00
2022-10-23T09:40:28.588Z,4995.00
2022-10-23T09:41:28.617Z,5018.00
2022-10-23T09:42:28.546Z,5545.00
2022-10-23T09:43:28.536Z,5871.00
2022-10-23T09:44:28.526Z,5691.00
2022-10-23T09:45:28.531Z,5276.00
2022-10-23T09:46:28.527Z,5456.00
2022-10-23T09:47:28.517Z,5587.00
2022-10-23T09:48:28.482Z,5474.00
2022-10-23T09:49:28.495Z,5391.00
2022-10-23T09:50:28.458Z,5303.00
2022-10-23T09:51:28.430Z,5348.00
2022-10-23T09:52:28.429Z,5340.00
2022-10-23T09:53:28.399Z,5296.00
2022-10-23T09:54:28.400Z,5217.00
2022-10-23T09:55:28.392Z,5101.00
2022-10-23T09:56:28.360Z,5107.00
2022-10-23T09:57:28.351Z,5065.00
2022-10-23T09:58:28.344Z,5025.00
2022-10-23T09:59:28.332Z,4931.00
2022-10-23T10:00:28.322Z,4703.00
2022-10-23T10:01:28.380Z,4513.00
2022-10-23T10:02:28.288Z,4566.00
2022-10-23T10:03:28.504Z,4390.00
2022-10-23T10:04:28.268Z,4435.00
2022-10-23T10:05:28.254Z,4756.00
2022-10-23T10:06:28.276Z,4602.00
2022-10-23T10:07:29.391Z,4667.00
2022-10-23T10:08:29.162Z,4698.00
2022-10-23T10:09:28.184Z,4654.00
2022-10-23T10:10:28.192Z,4710.00
2022-10-23T10:11:28.163Z,4756.00
2022-10-23T10:12:28.150Z,4807.00
2022-10-23T10:13:28.134Z,4924.00
2022-10-23T10:14:28.137Z,4839.00
2022-10-23T10:15:28.106Z,4931.00
2022-10-23T10:16:28.180Z,4846.00
2022-10-23T10:17:28.099Z,4907.00
2022-10-23T10:18:28.078Z,5026.00
2022-10-23T10:19:28.049Z,5124.00
2022-10-23T10:20:28.054Z,5024.00
2022-10-23T10:21:28.029Z,4953.00
2022-10-23T10:22:28.010Z,4960.00
2022-10-23T10:23:27.993Z,4929.00
2022-10-23T10:24:28.000Z,5157.00
2022-10-23T10:25:27.973Z,5297.00
2022-10-23T10:26:27.970Z,5375.00
2022-10-23T10:27:27.952Z,5433.00
2022-10-23T10:28:27.941Z,5455.00
2022-10-23T10:29:27.963Z,5463.00
2022-10-23T10:30:27.922Z,5492.00
2022-10-23T10:31:27.893Z,5412.00
2022-10-23T10:32:28.828Z,5268.00
2022-10-23T10:33:27.882Z,5017.00
2022-10-23T10:34:27.855Z,4891.00
2022-10-23T10:35:27.850Z,4742.00
2022-10-23T10:36:27.858Z,4570.00
2022-10-23T10:37:27.814Z,4443.00
2022-10-23T10:38:27.806Z,4395.00
2022-10-23T10:39:27.785Z,4256.00
2022-10-23T10:40:27.786Z,4275.00
2022-10-23T10:41:27.758Z,4311.00
2022-10-23T10:42:27.754Z,4285.00
2022-10-23T10:43:27.728Z,4302.00
2022-10-23T10:44:27.730Z,4258.00
2022-10-23T10:45:27.719Z,4120.00
2022-10-23T10:46:27.699Z,4011.00
2022-10-23T10:47:27.679Z,3857.00
2022-10-23T10:48:27.679Z,3815.00
2022-10-23T10:49:27.893Z,3604.00
2022-10-23T10:50:27.661Z,3501.00
2022-10-23T10:51:27.630Z,3442.00
2022-10-23T10:52:27.625Z,3440.00
2022-10-23T10:53:27.609Z,3441.00
2022-10-23T10:54:27.604Z,3446.00
2022-10-23T10:55:27.607Z,3405.00
2022-10-23T10:56:27.570Z,3314.00
2022-10-23T10:57:27.561Z,3241.00
2022-10-23T10:58:27.534Z,3303.00
2022-10-23T10:59:27.540Z,3587.00
2022-10-23T11:00:27.511Z,3385.00
2022-10-23T11:01:27.640Z,3482.00
2022-10-23T11:02:27.481Z,3549.00
2022-10-23T11:03:27.465Z,3576.00
2022-10-23T11:04:27.476Z,3608.00
2022-10-23T11:05:27.445Z,3594.00
2022-10-23T11:06:27.442Z,3810.00
2022-10-23T11:07:27.416Z,3568.00
2022-10-23T11:08:27.408Z,3818.00
2022-10-23T11:09:27.397Z,3890.00
2022-10-23T11:10:27.377Z,3689.00
2022-10-23T11:11:27.368Z,3629.00
2022-10-23T11:12:27.348Z,3732.00
2022-10-23T11:13:27.327Z,3907.00
2022-10-23T11:14:27.339Z,3934.00
2022-10-23T11:15:27.324Z,3939.00
2022-10-23T11:16:27.312Z,3996.00
2022-10-23T11:17:27.275Z,4393.00
2022-10-23T11:18:27.273Z,4459.00
2022-10-23T11:19:27.259Z,4457.00
2022-10-23T11:20:27.261Z,4631.00
2022-10-23T11:21:27.231Z,4669.00
2022-10-23T11:22:27.218Z,4750.00
2022-10-23T11:23:27.208Z,4759.00
2022-10-23T11:24:27.222Z,5073.00
2022-10-23T11:25:27.183Z,4984.00
2022-10-23T11:26:27.175Z,5110.00
2022-10-23T11:27:27.160Z,5018.00
2022-10-23T11:28:27.162Z,4803.00
2022-10-23T11:29:27.134Z,4688.00
2022-10-23T11:30:27.115Z,4456.00
2022-10-23T11:31:27.101Z,4498.00
2022-10-23T11:32:27.123Z,4447.00
2022-10-23T11:33:27.074Z,4584.00
2022-10-23T11:34:27.066Z,4792.00
2022-10-23T11:35:27.036Z,4920.00
2022-10-23T11:36:27.032Z,5328.00
2022-10-23T11:37:27.016Z,5390.00
2022-10-23T11:38:27.005Z,5520.00
2022-10-23T11:39:26.993Z,5451.00
2022-10-23T11:40:27.927Z,5376.00
2022-10-23T11:41:27.184Z,5166.00
2022-10-23T11:42:26.967Z,5092.00
2022-10-23T11:43:26.940Z,4884.00
2022-10-23T11:44:26.930Z,4663.00
2022-10-23T11:45:26.909Z,4516.00
2022-10-23T11:46:26.900Z,4592.00
2022-10-23T11:47:27.841Z,4610.00
2022-10-23T11:48:26.872Z,4596.00
2022-10-23T11:49:26.869Z,4563.00
2022-10-23T11:50:27.110Z,4470.00
2022-10-23T11:51:26.829Z,4560.00
2022-10-23T11:52:26.812Z,4387.00
2022-10-23T11:53:26.817Z,4384.00
2022-10-23T11:54:26.802Z,4291.00
2022-10-23T11:55:26.784Z,4197.00
2022-10-23T11:56:26.765Z,4235.00
2022-10-23T11:57:27.004Z,4445.00
2022-10-23T11:58:26.744Z,4436.00
2022-10-23T11:59:26.734Z,4450.00
2022-10-23T12:00:26.716Z,4610.00
2022-10-23T12:01:26.734Z,4831.00
2022-10-23T12:02:26.739Z,4795.00
2022-10-23T12:03:26.699Z,4891.00
2022-10-23T12:04:26.698Z,4951.00
2022-10-23T12:05:26.648Z,4878.00
2022-10-23T12:06:26.654Z,5068.00
2022-10-23T12:07:26.868Z,5188.00
2022-10-23T12:08:26.607Z,5347.00
2022-10-23T12:09:26.598Z,5493.00
2022-10-23T12:10:26.602Z,5589.00
2022-10-23T12:11:27.624Z,5596.00
2022-10-23T12:12:26.554Z,5629.00
2022-10-23T12:13:26.540Z,5628.00
2022-10-23T12:14:26.534Z,5637.00
2022-10-23T12:15:26.511Z,5637.00
2022-10-23T12:16:26.509Z,5638.00
2022-10-23T12:17:26.484Z,5615.00
2022-10-23T12:18:26.485Z,5662.00
2022-10-23T12:19:26.464Z,5798.00
2022-10-23T12:20:26.445Z,5826.00
2022-10-23T12:21:26.432Z,5825.00
2022-10-23T12:22:26.448Z,5848.00
2022-10-23T12:23:26.405Z,5840.00
2022-10-23T12:24:26.419Z,5864.00
2022-10-23T12:25:26.376Z,5849.00
2022-10-23T12:26:26.366Z,5828.00
2022-10-23T12:27:26.357Z,5798.00
2022-10-23T12:28:26.346Z,5779.00
2022-10-23T12:29:26.327Z,5760.00
2022-10-23T12:30:26.314Z,5738.00
2022-10-23T12:31:26.315Z,5686.00
2022-10-23T12:32:26.290Z,5653.00
2022-10-23T12:33:26.275Z,5615.00
2022-10-23T12:34:26.271Z,5587.00
2022-10-23T12:35:26.239Z,5579.00
2022-10-23T12:36:26.231Z,5553.00
2022-10-23T12:37:26.210Z,5523.00
2022-10-23T12:38:26.210Z,5512.00
2022-10-23T12:39:26.223Z,5466.00
2022-10-23T12:40:26.182Z,5432.00
2022-10-23T12:41:26.161Z,5355.00
2022-10-23T12:42:26.185Z,5287.00
2022-10-23T12:43:26.153Z,5219.00
2022-10-23T12:44:26.130Z,5126.00
2022-10-23T12:45:26.112Z,5060.00
2022-10-23T12:46:26.105Z,4985.00
2022-10-23T12:47:26.148Z,4914.00
2022-10-23T12:48:26.093Z,4846.00
2022-10-23T12:49:26.061Z,4765.00
2022-10-23T12:50:26.071Z,4709.00
2022-10-23T12:51:26.025Z,4691.00
2022-10-23T12:52:26.017Z,4643.00
2022-10-23T12:53:26.006Z,4734.00
2022-10-23T12:54:25.986Z,4679.00
2022-10-23T12:55:26.006Z,4672.00
2022-10-23T12:56:25.967Z,4741.00
2022-10-23T12:57:26.026Z,4792.00
2022-10-23T12:58:25.947Z,4877.00
2022-10-23T12:59:25.918Z,4884.00
2022-10-23T13:00:25.921Z,4963.00
2022-10-23T13:01:26.032Z,5020.00
2022-10-23T13:02:25.971Z,5017.00
2022-10-23T13:03:25.870Z,5097.00
2022-10-23T13:04:25.861Z,5164.00
2022-10-23T13:05:25.841Z,5247.00
2022-10-23T13:06:25.851Z,5209.00
2022-10-23T13:07:25.835Z,5286.00
2022-10-23T13:08:25.822Z,5376.00
2022-10-23T13:09:25.804Z,5404.00
2022-10-23T13:10:25.782Z,5410.00
2022-10-23T13:11:25.765Z,5409.00
2022-10-23T13:12:25.765Z,5411.00
2022-10-23T13:13:25.745Z,5371.00
2022-10-23T13:14:25.731Z,5361.00
2022-10-23T13:15:25.712Z,5341.00
2022-10-23T13:16:25.711Z,5340.00
2022-10-23T13:17:25.686Z,5341.00
2022-10-23T13:18:25.677Z,5386.00
2022-10-23T13:19:25.658Z,5309.00
2022-10-23T13:20:25.703Z,5217.00
2022-10-23T13:21:25.641Z,5229.00
2022-10-23T13:22:25.627Z,5176.00
2022-10-23T13:23:25.608Z,5130.00
2022-10-23T13:24:25.598Z,5186.00
2022-10-23T13:25:25.587Z,5288.00
2022-10-23T13:26:25.574Z,5293.00
2022-10-23T13:27:25.840Z,5229.00
2022-10-23T13:28:25.549Z,5176.00
2022-10-23T13:30:25.517Z,5126.00
2022-10-23T13:31:25.501Z,5131.00
2022-10-23T13:32:25.488Z,5129.00
2022-10-23T13:33:25.485Z,5134.00
2022-10-23T13:34:25.462Z,5121.00
2022-10-23T13:35:25.443Z,5128.00
2022-10-23T13:36:25.434Z,5113.00
2022-10-23T13:37:25.434Z,5094.00
2022-10-23T13:38:25.435Z,5049.00
2022-10-23T13:39:25.436Z,4998.00
2022-10-23T13:40:25.374Z,4914.00
2022-10-23T13:41:25.375Z,4853.00
2022-10-23T13:42:25.393Z,4756.00
2022-10-23T13:43:25.346Z,4658.00
2022-10-23T13:44:25.325Z,4538.00
2022-10-23T13:45:25.333Z,4486.00
2022-10-23T13:46:25.298Z,4427.00
2022-10-23T13:47:25.299Z,4402.00
2022-10-23T13:48:25.280Z,4376.00
2022-10-23T13:49:25.287Z,4331.00
2022-10-23T13:50:25.247Z,4307.00
2022-10-23T13:51:25.229Z,4292.00
2022-10-23T13:52:25.231Z,4278.00
2022-10-23T13:53:25.223Z,4242.00
2022-10-23T13:54:25.312Z,4203.00
2022-10-23T13:55:25.181Z,4137.00
2022-10-23T13:56:25.176Z,4090.00
2022-10-23T13:57:25.161Z,4049.00
2022-10-23T13:58:25.151Z,3987.00
2022-10-23T13:59:25.149Z,3939.00
2022-10-23T14:00:25.112Z,3895.00
2022-10-23T14:01:25.445Z,3857.00
2022-10-23T14:02:25.202Z,3812.00
2022-10-23T14:03:25.122Z,3785.00
2022-10-23T14:04:25.064Z,3757.00
2022-10-23T14:05:25.059Z,3729.00
2022-10-23T14:06:25.036Z,3691.00
2022-10-23T14:07:25.026Z,3656.00
2022-10-23T14:08:25.023Z,3603.00
2022-10-23T14:09:24.996Z,3538.00
2022-10-23T14:10:27.041Z,3465.00
2022-10-23T14:11:24.966Z,3379.00
2022-10-23T14:12:24.956Z,3287.00
2022-10-23T14:13:24.964Z,3197.00
2022-10-23T14:14:24.974Z,3144.00
2022-10-23T14:15:24.928Z,3078.00
2022-10-23T14:16:24.898Z,3024.00
2022-10-23T14:17:24.890Z,2974.00
2022-10-23T14:18:24.876Z,2921.00
2022-10-23T14:19:24.900Z,2848.00
2022-10-23T14:20:27.094Z,2805.00
2022-10-23T14:21:24.830Z,2744.00
2022-10-23T14:22:24.880Z,2690.00
2022-10-23T14:23:24.821Z,2642.00
2022-10-23T14:24:24.797Z,2594.00
2022-10-23T14:25:24.784Z,2537.00
2022-10-23T14:26:24.772Z,2503.00
2022-10-23T14:27:24.782Z,2465.00
2022-10-23T14:28:24.783Z,2395.00
2022-10-23T14:29:24.802Z,2354.00
2022-10-23T14:30:24.725Z,2297.00
2022-10-23T14:31:24.712Z,2255.00
2022-10-23T14:32:24.703Z,2198.00
2022-10-23T14:33:24.715Z,2156.00
2022-10-23T14:34:24.663Z,2109.00
2022-10-23T14:35:24.659Z,2097.00
2022-10-23T14:36:26.462Z,2056.00
2022-10-23T14:37:25.634Z,2026.00
2022-10-23T14:38:25.567Z,1985.00
2022-10-23T14:39:24.629Z,1928.00
2022-10-23T14:40:24.597Z,1861.00
2022-10-23T14:41:24.579Z,1800.00
2022-10-23T14:42:24.558Z,1718.00
2022-10-23T14:43:24.562Z,1610.00
2022-10-23T14:44:24.555Z,1500.00
2022-10-23T14:45:24.519Z,1397.00
2022-10-23T14:46:24.499Z,1289.00
2022-10-23T14:47:24.500Z,1203.00
2022-10-23T14:48:24.482Z,1124.00
2022-10-23T14:49:24.474Z,1073.00
2022-10-23T14:50:24.451Z,1062.00
2022-10-23T14:51:24.450Z,1064.00
2022-10-23T14:52:24.438Z,1081.00
2022-10-23T14:53:24.433Z,1120.00
2022-10-23T14:54:24.413Z,1178.00
2022-10-23T14:55:24.386Z,1232.00
2022-10-23T14:56:24.374Z,1296.00
2022-10-23T14:57:24.363Z,1359.00
2022-10-23T14:58:24.354Z,1418.00
2022-10-23T14:59:24.339Z,1475.00
2022-10-23T15:00:24.315Z,1501.00
2022-10-23T15:01:24.409Z,1511.00
2022-10-23T15:02:24.325Z,1505.00
2022-10-23T15:03:24.288Z,1476.00
2022-10-23T15:04:24.266Z,1452.00
2022-10-23T15:05:24.257Z,1410.00
2022-10-23T15:06:24.257Z,1374.00
2022-10-23T15:07:25.187Z,1342.00
2022-10-23T15:08:24.228Z,1310.00
2022-10-23T15:09:24.201Z,1273.00
2022-10-23T15:10:24.190Z,1246.00
2022-10-23T15:11:24.187Z,1234.00
2022-10-23T15:12:24.154Z,1190.00
2022-10-23T15:13:24.166Z,1139.00
2022-10-23T15:14:25.090Z,1070.00
2022-10-23T15:15:24.160Z,1004.00
2022-10-23T15:16:24.130Z,920.00
2022-10-23T15:17:24.102Z,835.00
2022-10-23T15:18:24.137Z,744.00
2022-10-23T15:19:24.068Z,667.00
2022-10-23T15:20:24.052Z,586.00
2022-10-23T15:21:24.095Z,536.00
2022-10-23T15:22:24.026Z,512.00
2022-10-23T15:23:24.976Z,509.00
2022-10-23T15:24:23.993Z,501.00
2022-10-23T15:25:23.982Z,501.00
2022-10-23T15:26:23.976Z,510.00
2022-10-23T15:27:23.962Z,510.00
2022-10-23T15:28:23.940Z,505.00
2022-10-23T15:29:23.933Z,497.00
2022-10-23T15:30:23.917Z,473.00
2022-10-23T15:31:23.904Z,449.00
2022-10-23T15:32:23.885Z,415.00
2022-10-23T15:33:23.887Z,383.00
2022-10-23T15:34:23.857Z,359.00
2022-10-23T15:35:23.901Z,313.00
2022-10-23T15:36:23.840Z,310.00
2022-10-23T15:37:23.828Z,286.00
2022-10-23T15:38:23.818Z,250.00
2022-10-23T15:39:24.747Z,231.00
2022-10-23T15:40:23.790Z,220.00
2022-10-23T15:41:23.760Z,183.00
2022-10-23T15:42:23.760Z,179.00
2022-10-23T15:43:23.741Z,168.00
2022-10-23T15:44:23.721Z,153.00
2022-10-23T15:45:26.563Z,141.00
2022-10-23T15:46:24.697Z,135.00
2022-10-23T15:47:23.700Z,123.00
2022-10-23T15:48:23.671Z,111.00
2022-10-23T15:49:23.653Z,114.00
2022-10-23T15:50:23.635Z,106.00
2022-10-23T15:51:23.626Z,97.00
2022-10-23T15:52:23.630Z,85.00
2022-10-23T15:53:23.611Z,82.00
2022-10-23T15:54:23.649Z,77.00
2022-10-23T15:55:23.610Z,59.00
2022-10-23T15:56:23.585Z,61.00
2022-10-23T15:57:23.592Z,62.00
2022-10-23T15:58:23.546Z,60.00
2022-10-23T15:59:23.526Z,57.00
2022-10-23T16:00:23.591Z,55.00
2022-10-23T16:01:23.699Z,48.00
2022-10-23T16:02:23.625Z,46.00
2022-10-23T16:03:23.488Z,43.00
2022-10-23T16:04:23.464Z,53.00
2022-10-23T16:05:23.438Z,43.00
2022-10-23T16:06:23.422Z,42.00
2022-10-23T16:07:23.420Z,30.00
2022-10-23T16:08:23.401Z,27.00
2022-10-23T16:09:23.383Z,10.00
2022-10-23T16:10:23.374Z,16.00
2022-10-23T16:11:23.357Z,14.00
2022-10-23T16:12:23.358Z,18.00
2022-10-23T16:13:23.340Z,7.00
2022-10-23T16:14:23.321Z,13.00
2022-10-23T16:15:23.344Z,7.00
2022-10-23T16:16:23.282Z,3.00
2022-10-23T16:17:23.282Z,5.00
2022-10-23T16:18:23.255Z,1.00
2022-10-23T16:19:23.244Z,6.00
2022-10-23T16:20:23.233Z,2.00
2022-10-23T16:21:23.233Z,0.00
2022-10-23T16:22:23.204Z,4.00
2022-10-23T16:23:23.194Z,0.00
2022-10-23T16:24:23.185Z,0.00
2022-10-23T16:25:23.280Z,2.00
2022-10-23T16:26:23.156Z,2.00
2022-10-23T16:27:23.153Z,2.00
2022-10-23T16:28:23.127Z,0.00
2022-10-23T16:29:23.107Z,0.00
2022-10-23T16:30:24.065Z,0.00
2022-10-23T16:31:24.035Z,0.00
2022-10-23T16:32:24.029Z,0.00
2022-10-23T16:33:23.069Z,0.00
2022-10-23T16:34:23.050Z,0.00
2022-10-23T16:35:23.050Z,0.00
2022-10-23T16:36:23.028Z,0.00
2022-10-23T16:37:23.013Z,0.00
2022-10-23T16:38:22.992Z,1.00
2022-10-23T16:39:22.991Z,1.00
2022-10-23T16:40:22.960Z,0.00
2022-10-23T16:41:22.944Z,0.00
2022-10-23T16:42:22.944Z,0.00
2022-10-23T16:43:22.920Z,0.00
2022-10-23T16:44:22.913Z,0.00
2022-10-23T16:45:22.891Z,0.00
2022-10-23T16:46:22.892Z,0.00
2022-10-23T16:47:22.883Z,0.00
2022-10-23T16:48:23.686Z,0.00
2022-10-23T16:49:22.843Z,0.00
2022-10-23T16:50:22.828Z,0.00
2022-10-23T16:51:22.816Z,0.00
2022-10-23T16:52:22.809Z,0.00
2022-10-23T16:53:22.814Z,0.00
2022-10-23T16:54:22.769Z,0.00
2022-10-23T16:55:22.826Z,0.00
2022-10-23T16:56:22.755Z,0.00
2022-10-23T16:57:22.743Z,0.00
2022-10-23T16:58:22.713Z,0.00
2022-10-23T16:59:22.736Z,0.00
2022-10-23T17:00:22.689Z,0.00
2022-10-23T17:01:22.780Z,0.00
2022-10-23T17:02:22.837Z,0.00
2022-10-23T17:03:22.659Z,0.00
2022-10-23T17:04:23.578Z,0.00
2022-10-23T17:05:22.630Z,0.00
2022-10-23T17:06:22.619Z,0.00
2022-10-23T17:08:22.579Z,0.00
2022-10-23T17:09:22.586Z,0.00
2022-10-23T17:10:22.549Z,0.00
2022-10-23T17:11:22.557Z,0.00
2022-10-23T17:12:22.521Z,0.00
2022-10-23T17:13:22.519Z,0.00
2022-10-23T17:14:22.501Z,0.00
2022-10-23T17:15:22.502Z,0.00
2022-10-23T17:16:22.522Z,0.00